createdAt,value
2023-01-01T00:06:09.257Z,22.25
2023-01-01T00:13:27.629Z,17.53
2023-01-01T00:20:45.864Z,24.42
2023-01-01T00:28:05.971Z,16.65
2023-01-01T00:35:25.079Z,16.05
2023-01-01T00:42:43.326Z,12.77
2023-01-01T00:50:03.088Z,11.98
2023-01-01T00:57:21.398Z,8.68
2023-01-01T01:04:40.009Z,5.55
2023-01-01T01:12:17.737Z,3.60
2023-01-01T01:19:37.373Z,6.13
2023-01-01T01:26:55.574Z,5.97
2023-01-01T01:34:16.482Z,4.15
2023-01-01T01:41:35.394Z,4.32
2023-01-01T01:48:54.669Z,5.38
2023-01-01T01:56:20.268Z,3.92
2023-01-01T02:03:42.331Z,2.80
2023-01-01T02:11:00.615Z,4.05
2023-01-01T02:18:23.015Z,3.75
2023-01-01T02:25:52.949Z,6.78
2023-01-01T02:33:16.452Z,5.13
2023-01-01T02:40:36.270Z,4.78
2023-01-01T02:47:54.511Z,3.58
2023-01-01T02:55:22.956Z,2.78
2023-01-01T03:02:51.110Z,5.07
2023-01-01T03:10:16.475Z,4.13
2023-01-01T03:17:37.609Z,5.72
2023-01-01T03:24:59.486Z,3.60
2023-01-01T03:32:23.433Z,4.65
2023-01-01T03:39:45.007Z,6.10
2023-01-01T03:47:03.793Z,2.75
2023-01-01T03:54:30.188Z,6.47
2023-01-01T04:01:50.971Z,4.22
2023-01-01T04:09:11.602Z,4.32
2023-01-01T04:16:32.559Z,3.53
2023-01-01T04:23:53.529Z,4.22
2023-01-01T04:31:12.879Z,5.18
2023-01-01T04:38:32.527Z,3.97
2023-01-01T04:45:57.348Z,4.10
2023-01-01T04:53:15.559Z,3.50
2023-01-01T05:00:35.207Z,5.57
2023-01-01T05:07:53.430Z,4.45
2023-01-01T05:15:12.157Z,3.40
2023-01-01T05:22:34.607Z,6.50
2023-01-01T05:29:52.879Z,4.70
2023-01-01T05:37:11.097Z,3.20
2023-01-01T05:44:31.043Z,5.45
2023-01-01T05:51:50.809Z,4.22
2023-01-01T05:59:10.661Z,5.00
2023-01-01T06:06:33.387Z,6.82
2023-01-01T06:13:54.010Z,5.93
2023-01-01T06:21:14.007Z,3.45
2023-01-01T06:28:33.804Z,5.32
2023-01-01T06:35:54.796Z,4.90
2023-01-01T06:43:13.005Z,4.07
2023-01-01T06:50:32.577Z,4.68
2023-01-01T06:57:53.240Z,3.03
2023-01-01T07:05:11.532Z,5.55
2023-01-01T07:12:31.777Z,4.53
2023-01-01T07:19:50.063Z,3.17
2023-01-01T07:27:08.224Z,7.30
2023-01-01T07:34:27.935Z,5.32
2023-01-01T07:41:46.307Z,4.28
2023-01-01T07:49:05.419Z,5.40
2023-01-01T07:56:25.057Z,4.65
2023-01-01T08:03:43.782Z,4.35
2023-01-01T08:11:04.178Z,4.28
2023-01-01T08:18:23.865Z,6.75
2023-01-01T08:25:42.047Z,4.60
2023-01-01T08:33:00.372Z,5.15
2023-01-01T08:40:20.979Z,4.45
2023-01-01T08:47:39.393Z,4.28
2023-01-01T08:54:57.723Z,4.07
2023-01-01T09:02:17.473Z,3.75
2023-01-01T09:09:35.888Z,4.05
2023-01-01T09:16:54.355Z,4.22
2023-01-01T09:24:14.173Z,3.65
2023-01-01T09:31:32.850Z,3.67
2023-01-01T09:38:51.388Z,4.53
2023-01-01T09:46:11.460Z,4.25
2023-01-01T09:53:33.343Z,6.13
2023-01-01T10:00:54.731Z,4.72
2023-01-01T10:08:23.675Z,4.72
2023-01-01T10:15:46.187Z,4.70
2023-01-01T10:23:09.080Z,6.23
2023-01-01T10:30:30.722Z,4.22
2023-01-01T10:37:49.993Z,4.15
2023-01-01T10:45:13.888Z,3.92
2023-01-01T10:52:37.325Z,4.07
2023-01-01T10:59:55.766Z,4.75
2023-01-01T11:07:21.311Z,6.35
2023-01-01T11:14:43.732Z,5.03
2023-01-01T11:22:02.366Z,4.40
2023-01-01T11:29:25.099Z,7.00
2023-01-01T11:36:45.006Z,5.13
2023-01-01T11:44:03.555Z,5.25
2023-01-01T11:51:32.393Z,5.47
2023-01-01T11:58:54.111Z,7.45
2023-01-01T12:06:17.759Z,4.97
2023-01-01T12:13:43.630Z,8.48
2023-01-01T12:21:05.368Z,6.65
2023-01-01T12:28:31.968Z,10.85
2023-01-01T12:36:24.207Z,5.97
2023-01-01T12:43:49.197Z,8.63
2023-01-01T12:51:17.645Z,8.05
2023-01-01T12:58:39.102Z,8.85
2023-01-01T13:05:58.737Z,9.15
2023-01-01T13:13:18.702Z,7.78
2023-01-01T13:20:40.900Z,10.15
2023-01-01T13:28:13.946Z,9.13
2023-01-01T13:35:34.849Z,12.93
2023-01-01T13:43:06.811Z,7.10
2023-01-01T13:50:30.742Z,8.53
2023-01-01T13:58:25.334Z,8.68
2023-01-01T14:05:46.096Z,7.60
2023-01-01T14:13:17.164Z,13.52
2023-01-01T14:20:37.798Z,12.38
2023-01-01T14:27:57.281Z,13.73
2023-01-01T14:35:19.070Z,9.30
2023-01-01T14:42:39.096Z,14.68
2023-01-01T14:50:02.082Z,13.75
2023-01-01T14:57:25.883Z,8.57
2023-01-01T15:04:44.658Z,13.07
2023-01-01T15:12:02.829Z,14.93
2023-01-01T15:19:24.796Z,11.63
2023-01-01T15:26:44.924Z,7.28
2023-01-01T15:34:03.410Z,9.63
2023-01-01T15:41:27.818Z,12.05
2023-01-01T15:48:49.360Z,11.98
2023-01-01T15:56:12.156Z,12.63
2023-01-01T16:03:32.567Z,11.10
2023-01-01T16:10:51.437Z,12.25
2023-01-01T16:18:12.628Z,17.25
2023-01-01T16:25:32.282Z,11.70
2023-01-01T16:32:51.313Z,13.85
2023-01-01T16:40:10.897Z,8.90
2023-01-01T16:47:31.706Z,9.13
2023-01-01T16:54:50.070Z,13.38
2023-01-01T17:02:11.362Z,9.85
2023-01-01T17:09:31.859Z,11.40
2023-01-01T17:16:52.016Z,11.20
2023-01-01T17:24:11.236Z,14.85
2023-01-01T17:31:31.637Z,12.55
2023-01-01T17:38:50.424Z,11.23
2023-01-01T17:46:12.172Z,13.02
2023-01-01T17:53:32.761Z,10.18
2023-01-01T18:00:51.377Z,12.75
2023-01-01T18:08:09.677Z,17.55
2023-01-01T18:15:30.223Z,15.90
2023-01-01T18:22:48.905Z,14.43
2023-01-01T18:30:08.064Z,14.88
2023-01-01T18:37:29.347Z,18.05
2023-01-01T18:44:47.789Z,19.33
2023-01-01T18:52:13.611Z,17.05
2023-01-01T18:59:33.605Z,17.60
2023-01-01T19:06:51.883Z,16.70
2023-01-01T19:14:16.045Z,16.90
2023-01-01T19:21:35.830Z,18.13
2023-01-01T19:28:55.228Z,19.85
2023-01-01T19:36:13.522Z,22.83
2023-01-01T19:43:33.093Z,19.88
2023-01-01T19:50:51.294Z,27.17
2023-01-01T19:58:10.808Z,21.98
2023-01-01T20:05:34.991Z,22.92
2023-01-01T20:12:53.814Z,28.25
2023-01-01T20:20:12.715Z,21.85
2023-01-01T20:27:34.193Z,21.00
2023-01-01T20:34:53.360Z,24.95
2023-01-01T20:42:12.101Z,26.48
2023-01-01T20:49:31.789Z,23.20
2023-01-01T20:56:52.946Z,24.42
2023-01-01T21:04:11.895Z,20.95
2023-01-01T21:11:31.529Z,24.60
2023-01-01T21:18:50.390Z,22.13
2023-01-01T21:26:15.132Z,21.80
2023-01-01T21:33:34.947Z,22.23
2023-01-01T21:40:54.500Z,22.10
2023-01-01T21:48:20.182Z,18.77
2023-01-01T21:55:55.462Z,20.65
2023-01-01T22:03:28.905Z,25.63
2023-01-01T22:10:50.819Z,20.77
2023-01-01T22:18:24.994Z,26.95
2023-01-01T22:25:43.232Z,21.35
2023-01-01T22:33:02.758Z,20.73
2023-01-01T22:40:26.351Z,21.42
2023-01-01T22:47:45.136Z,18.50
2023-01-01T22:55:05.233Z,19.75
2023-01-01T23:02:23.748Z,24.42
2023-01-01T23:09:43.987Z,26.13
2023-01-01T23:17:03.939Z,21.30
2023-01-01T23:24:24.186Z,20.75
2023-01-01T23:31:43.389Z,22.45
2023-01-01T23:39:03.073Z,24.13
2023-01-01T23:46:21.843Z,19.98
2023-01-01T23:53:40.369Z,17.98
